Susuman, Russia
Current Conditions -  °F | °C
As of 1:30 PM on Wednesday 26 Nov 2014 (Local Time) from UHMM Reporting Station
Clear Clear  
Wind Chill: -2°   Ceiling: Unl
Heat Index: -2°   Visibility: 6mi
Dew Point: -9°   Wind: 2mph
Humidity: 71%   Direction: 110°ESE
Pressure: 29.77"   Gusts: NA
Location:  62.78°N, 148.17°E
Report Text: UHMM 260230Z 11001MPS 9999 SKC M19/M23 Q1008 NOSIG RMK QFE74188950550
Loading
Personal Weather Stations






























Interactive Weather Map New forecast layout! Learn more

10-Day Weather Forecast

Advertisements
Track Severe Weather on mobile